createdAt,value
2022-09-01T00:00:21.498Z,10.70
2022-09-01T00:02:51.761Z,16.15
2022-09-01T00:05:21.761Z,18.50
2022-09-01T00:07:51.843Z,15.77
2022-09-01T00:10:23.534Z,15.73
2022-09-01T00:12:53.699Z,11.65
2022-09-01T00:15:24.088Z,14.50
2022-09-01T00:17:54.376Z,11.48
2022-09-01T00:20:24.677Z,10.60
2022-09-01T00:22:54.637Z,12.82
2022-09-01T00:25:28.264Z,13.98
2022-09-01T00:28:00.831Z,14.93
2022-09-01T00:30:30.741Z,11.55
2022-09-01T00:33:00.644Z,11.13
2022-09-01T00:35:30.741Z,11.82
2022-09-01T00:38:06.931Z,13.23
2022-09-01T00:40:38.446Z,12.23
2022-09-01T00:43:16.860Z,12.70
2022-09-01T00:45:46.945Z,12.48
2022-09-01T00:48:16.986Z,16.40
2022-09-01T00:52:28.397Z,17.73
2022-09-01T00:55:04.366Z,12.07
2022-09-01T00:57:34.403Z,14.43
2022-09-01T01:00:13.720Z,12.82
2022-09-01T01:02:45.373Z,15.25
2022-09-01T01:05:16.874Z,12.70
2022-09-01T01:07:48.636Z,12.02
2022-09-01T01:10:22.656Z,13.50
2022-09-01T01:12:54.454Z,15.13
2022-09-01T01:15:24.411Z,11.82
2022-09-01T01:17:54.218Z,11.27
2022-09-01T01:20:46.337Z,15.75
2022-09-01T01:23:27.076Z,15.27
2022-09-01T01:26:01.376Z,12.82
2022-09-01T01:28:34.927Z,11.95
2022-09-01T01:31:12.258Z,13.32
2022-09-01T01:33:46.896Z,14.57
2022-09-01T01:36:21.956Z,13.52
2022-09-01T01:38:53.532Z,14.60
2022-09-01T01:41:25.060Z,12.77
2022-09-01T01:43:54.892Z,11.65
2022-09-01T01:46:26.494Z,14.52
2022-09-01T01:48:56.696Z,17.07
2022-09-01T01:51:28.838Z,10.07
2022-09-01T01:53:59.972Z,14.13
2022-09-01T01:56:31.738Z,11.45
2022-09-01T01:59:02.344Z,11.80
2022-09-01T02:01:33.065Z,16.75
2022-09-01T02:04:06.083Z,13.52
2022-09-01T02:06:37.373Z,15.48
2022-09-01T02:09:07.273Z,14.63
2022-09-01T02:11:39.177Z,12.38
2022-09-01T02:14:10.536Z,11.23
2022-09-01T02:16:40.907Z,18.13
2022-09-01T02:19:12.600Z,13.50
2022-09-01T02:21:45.033Z,13.07
2022-09-01T02:26:49.413Z,9.68
2022-09-01T02:29:23.245Z,10.05
2022-09-01T02:31:56.023Z,10.90
2022-09-01T02:34:29.215Z,12.35
2022-09-01T02:37:00.301Z,11.07
2022-09-01T02:39:33.872Z,10.73
2022-09-01T02:42:05.432Z,12.70
2022-09-01T02:44:39.492Z,18.77
2022-09-01T02:47:11.294Z,11.93
2022-09-01T02:49:43.365Z,13.25
2022-09-01T02:52:16.317Z,10.90
2022-09-01T02:54:46.897Z,11.95
2022-09-01T02:57:18.537Z,13.88
2022-09-01T02:59:48.857Z,13.53
2022-09-01T03:02:18.632Z,17.52
2022-09-01T03:04:53.269Z,13.43
2022-09-01T03:07:24.335Z,20.38
2022-09-01T03:09:54.295Z,13.43
2022-09-01T03:12:25.565Z,16.50
2022-09-01T03:14:55.364Z,12.20
2022-09-01T03:17:25.071Z,16.50
2022-09-01T03:19:55.112Z,12.18
2022-09-01T03:22:58.377Z,14.32
2022-09-01T03:25:30.039Z,14.57
2022-09-01T03:28:03.122Z,12.57
2022-09-01T03:30:36.765Z,10.13
2022-09-01T03:33:06.660Z,11.88
2022-09-01T03:35:37.628Z,13.52
2022-09-01T03:38:09.013Z,13.43
2022-09-01T03:40:40.264Z,12.00
2022-09-01T03:43:13.323Z,13.88
2022-09-01T03:45:44.276Z,12.98
2022-09-01T03:48:16.731Z,12.32
2022-09-01T03:53:27.795Z,15.15
2022-09-01T03:55:57.852Z,11.30
2022-09-01T03:58:28.778Z,13.15
2022-09-01T04:01:03.339Z,12.73
2022-09-01T04:03:37.096Z,13.32
2022-09-01T04:06:13.045Z,12.35
2022-09-01T04:08:44.563Z,13.80
2022-09-01T04:11:19.471Z,12.73
2022-09-01T04:13:50.863Z,15.68
2022-09-01T04:16:41.116Z,14.27
2022-09-01T04:19:20.878Z,12.55
2022-09-01T04:21:52.211Z,10.13
2022-09-01T04:24:25.735Z,12.90
2022-09-01T04:26:56.656Z,11.43
2022-09-01T04:29:28.741Z,15.57
2022-09-01T04:32:02.422Z,12.75
2022-09-01T04:34:37.686Z,13.52
2022-09-01T04:37:13.466Z,8.77
2022-09-01T04:39:52.559Z,9.88
2022-09-01T04:42:27.520Z,15.27
2022-09-01T04:45:05.070Z,12.25
2022-09-01T04:47:42.495Z,15.30
2022-09-01T04:50:17.987Z,11.43
2022-09-01T04:52:49.276Z,11.98
2022-09-01T04:55:20.832Z,15.65
2022-09-01T04:57:52.701Z,14.17
2022-09-01T05:00:25.843Z,11.07
2022-09-01T05:03:03.519Z,12.68
2022-09-01T05:05:43.397Z,18.95
2022-09-01T05:08:22.114Z,20.33
2022-09-01T05:10:57.198Z,12.65
2022-09-01T05:13:27.612Z,14.80
2022-09-01T05:16:06.562Z,11.82
2022-09-01T05:18:36.596Z,13.15
2022-09-01T05:21:11.218Z,14.57
2022-09-01T05:23:41.660Z,12.32
2022-09-01T05:26:18.873Z,15.32
2022-09-01T05:28:51.016Z,15.43
2022-09-01T05:31:21.305Z,17.90
2022-09-01T05:33:53.296Z,10.30
2022-09-01T05:36:25.157Z,14.73
2022-09-01T05:38:55.137Z,17.75
2022-09-01T05:41:26.639Z,11.55
2022-09-01T05:44:00.522Z,19.50
2022-09-01T05:46:31.747Z,14.32
2022-09-01T05:49:01.913Z,18.35
2022-09-01T05:51:45.712Z,19.92
2022-09-01T05:54:16.828Z,18.73
2022-09-01T05:56:49.377Z,14.25
2022-09-01T06:01:54.389Z,14.45
2022-09-01T06:04:26.388Z,15.07
2022-09-01T06:07:06.817Z,13.38
2022-09-01T06:09:41.836Z,14.13
2022-09-01T06:12:18.621Z,17.02
2022-09-01T06:14:50.028Z,14.10
2022-09-01T06:17:25.540Z,11.25
2022-09-01T06:19:56.598Z,15.52
2022-09-01T06:22:28.623Z,21.23
2022-09-01T06:25:03.259Z,17.52
2022-09-01T06:27:39.059Z,16.23
2022-09-01T06:30:15.458Z,13.20
2022-09-01T06:32:46.013Z,14.07
2022-09-01T06:35:18.271Z,15.23
2022-09-01T06:40:19.544Z,12.85
2022-09-01T06:42:53.462Z,9.93
2022-09-01T06:45:25.539Z,12.85
2022-09-01T06:47:59.768Z,12.25
2022-09-01T06:53:38.976Z,12.30
2022-09-01T06:56:13.424Z,31.52
2022-09-01T06:58:49.195Z,10.60
2022-09-01T07:01:22.523Z,11.52
2022-09-01T07:03:54.596Z,12.48
2022-09-01T07:12:27.947Z,10.33
2022-09-01T07:17:54.074Z,9.18
2022-09-01T07:20:27.341Z,9.40
2022-09-01T07:23:04.712Z,9.20
2022-09-01T07:26:00.937Z,9.93
2022-09-01T07:28:36.637Z,10.90
2022-09-01T07:39:51.165Z,12.13
2022-09-01T07:45:32.887Z,9.47
2022-09-01T07:48:03.824Z,10.85
2022-09-01T07:51:35.093Z,9.63
2022-09-01T07:53:27.153Z,8.93
2022-09-01T07:55:58.813Z,11.07
2022-09-01T07:58:33.954Z,12.50
2022-09-01T08:01:04.252Z,11.98
2022-09-01T08:03:34.276Z,15.20
2022-09-01T08:06:08.181Z,8.18
2022-09-01T08:08:40.073Z,9.38
2022-09-01T08:11:10.976Z,9.88
2022-09-01T08:13:42.248Z,9.57
2022-09-01T08:16:18.247Z,12.02
2022-09-01T08:18:49.701Z,10.35
2022-09-01T08:21:23.894Z,8.52
2022-09-01T08:23:55.738Z,8.25
2022-09-01T08:26:28.152Z,11.25
2022-09-01T08:28:59.581Z,10.10
2022-09-01T08:31:30.997Z,11.55
2022-09-01T08:34:01.617Z,7.68
2022-09-01T08:36:31.693Z,10.02
2022-09-01T08:39:01.636Z,9.93
2022-09-01T08:41:47.075Z,8.38
2022-09-01T08:44:33.441Z,10.85
2022-09-01T08:47:07.478Z,11.15
2022-09-01T08:49:43.559Z,9.07
2022-09-01T08:52:25.498Z,10.20
2022-09-01T08:55:02.562Z,9.43
2022-09-01T08:57:36.917Z,9.85
2022-09-01T09:00:13.838Z,11.32
2022-09-01T09:03:02.844Z,10.85
2022-09-01T09:05:44.915Z,11.13
2022-09-01T09:11:07.556Z,11.77
2022-09-01T09:13:56.928Z,8.98
2022-09-01T09:16:34.593Z,9.63
2022-09-01T09:19:10.865Z,9.48
2022-09-01T09:21:43.316Z,11.02
2022-09-01T09:24:23.379Z,11.02
2022-09-01T09:26:54.603Z,13.27
2022-09-01T09:29:24.861Z,9.32
2022-09-01T09:32:22.543Z,10.70
2022-09-01T09:34:53.758Z,9.05
2022-09-01T09:37:27.754Z,12.32
2022-09-01T09:40:12.164Z,8.30
2022-09-01T09:42:47.340Z,6.15
2022-09-01T09:45:27.858Z,11.07
2022-09-01T09:48:00.566Z,10.00
2022-09-01T09:53:34.500Z,9.43
2022-09-01T09:56:10.445Z,9.88
2022-09-01T09:58:44.077Z,12.30
2022-09-01T10:01:17.784Z,9.05
2022-09-01T10:03:50.712Z,7.63
2022-09-01T10:06:36.605Z,9.68
2022-09-01T10:09:11.174Z,10.18
2022-09-01T10:11:44.455Z,8.38
2022-09-01T10:14:35.448Z,7.95
2022-09-01T10:17:17.950Z,10.20
2022-09-01T10:19:57.492Z,7.22
2022-09-01T10:22:28.754Z,7.55
2022-09-01T10:25:01.012Z,8.32
2022-09-01T10:27:35.564Z,8.82
2022-09-01T10:30:18.903Z,9.73
2022-09-01T10:32:55.295Z,10.50
2022-09-01T10:35:31.075Z,9.52
2022-09-01T10:38:06.694Z,9.90
2022-09-01T10:40:49.174Z,9.43
2022-09-01T10:43:38.186Z,11.63
2022-09-01T10:46:49.393Z,9.52
2022-09-01T10:50:00.084Z,8.55
2022-09-01T10:52:58.473Z,11.23
2022-09-01T10:55:43.029Z,9.55
2022-09-01T11:02:26.037Z,12.43
2022-09-01T11:05:19.999Z,7.65
2022-09-01T11:08:01.463Z,9.65
2022-09-01T11:10:49.223Z,11.20
2022-09-01T11:13:36.812Z,11.48
2022-09-01T11:16:50.498Z,9.10
2022-09-01T11:19:44.551Z,8.73
2022-09-01T11:22:29.156Z,12.13
2022-09-01T11:25:44.004Z,11.90
2022-09-01T11:28:48.055Z,9.82
2022-09-01T11:31:37.153Z,11.48
2022-09-01T11:34:21.179Z,9.13
2022-09-01T11:37:00.536Z,7.70
2022-09-01T11:39:44.395Z,9.63
2022-09-01T11:42:22.061Z,9.10
2022-09-01T11:45:02.503Z,8.57
2022-09-01T11:47:38.299Z,7.97
2022-09-01T11:50:19.716Z,11.05
2022-09-01T11:53:04.093Z,7.75
2022-09-01T11:55:37.086Z,10.15
2022-09-01T11:58:07.996Z,7.25
2022-09-01T12:00:43.133Z,8.13
2022-09-01T12:03:25.020Z,8.65
2022-09-01T12:05:59.896Z,9.05
2022-09-01T12:08:34.342Z,11.63
2022-09-01T12:11:07.662Z,10.27
2022-09-01T12:13:38.434Z,8.60
2022-09-01T12:16:18.392Z,10.83
2022-09-01T12:18:51.786Z,7.75
2022-09-01T12:21:26.317Z,8.02
2022-09-01T12:23:57.573Z,8.18
2022-09-01T12:26:30.975Z,6.90
2022-09-01T12:29:01.296Z,9.95
2022-09-01T12:31:32.802Z,10.65
2022-09-01T12:34:05.158Z,7.97
2022-09-01T12:36:37.251Z,7.28
2022-09-01T12:39:25.773Z,15.50
2022-09-01T12:42:14.846Z,9.02
2022-09-01T12:44:52.551Z,5.70
2022-09-01T12:47:50.991Z,6.03
2022-09-01T12:53:30.549Z,11.27
2022-09-01T12:56:30.176Z,7.70
2022-09-01T12:59:15.588Z,10.15
2022-09-01T13:01:47.418Z,9.38
2022-09-01T13:04:31.297Z,11.48
2022-09-01T13:07:06.872Z,5.50
2022-09-01T13:09:38.372Z,9.75
2022-09-01T13:12:20.462Z,8.48
2022-09-01T13:14:51.157Z,12.85
2022-09-01T13:17:23.999Z,7.43
2022-09-01T13:19:54.197Z,8.48
2022-09-01T13:22:24.176Z,6.85
2022-09-01T13:24:56.950Z,8.10
2022-09-01T13:27:26.995Z,11.27
2022-09-01T13:29:57.105Z,7.93
2022-09-01T13:32:27.346Z,7.32
2022-09-01T13:34:57.284Z,17.25
2022-09-01T13:37:27.773Z,8.00
2022-09-01T13:39:59.177Z,7.93
2022-09-01T13:42:29.176Z,14.93
2022-09-01T13:44:59.044Z,7.75
2022-09-01T13:47:30.089Z,9.73
2022-09-01T13:50:11.179Z,9.10
2022-09-01T13:52:44.594Z,8.70
2022-09-01T13:55:18.812Z,8.68
2022-09-01T13:57:51.535Z,10.70
2022-09-01T14:00:27.097Z,7.72
2022-09-01T14:03:00.635Z,7.75
2022-09-01T14:05:34.444Z,12.52
2022-09-01T14:08:05.096Z,9.40
2022-09-01T14:10:42.352Z,8.23
2022-09-01T14:13:13.216Z,10.63
2022-09-01T14:15:43.415Z,10.70
2022-09-01T14:18:14.369Z,11.95
2022-09-01T14:20:48.194Z,8.30
2022-09-01T14:23:19.013Z,8.57
2022-09-01T14:25:53.731Z,8.70
2022-09-01T14:28:25.012Z,10.68
2022-09-01T14:33:24.731Z,10.13
2022-09-01T14:35:54.661Z,10.80
2022-09-01T14:38:24.535Z,9.73
2022-09-01T14:40:55.929Z,8.57
2022-09-01T14:43:27.017Z,11.48
2022-09-01T14:46:07.916Z,10.07
2022-09-01T14:48:38.796Z,10.77
2022-09-01T14:51:10.415Z,11.23
2022-09-01T14:53:40.274Z,11.75
2022-09-01T14:56:11.617Z,10.70
2022-09-01T14:58:42.593Z,10.65
2022-09-01T15:01:33.318Z,8.20
2022-09-01T15:04:02.574Z,11.82
2022-09-01T15:06:32.453Z,12.88
2022-09-01T15:09:03.634Z,8.38
2022-09-01T15:11:35.851Z,12.27
2022-09-01T15:14:14.075Z,8.65
2022-09-01T15:16:43.993Z,12.80
2022-09-01T15:19:15.695Z,10.52
2022-09-01T15:21:48.274Z,13.27
2022-09-01T15:24:18.999Z,8.18
2022-09-01T15:26:50.515Z,12.68
2022-09-01T15:29:20.574Z,9.40
2022-09-01T15:31:51.945Z,12.57
2022-09-01T15:34:22.033Z,10.55
2022-09-01T15:36:51.890Z,9.10
2022-09-01T15:39:21.753Z,9.88
2022-09-01T15:41:54.294Z,10.68
2022-09-01T15:44:25.072Z,8.77
2022-09-01T15:46:54.921Z,9.40
2022-09-01T15:49:24.875Z,11.75
2022-09-01T15:53:22.613Z,8.68
2022-09-01T15:55:52.475Z,14.32
2022-09-01T15:58:24.725Z,7.38
2022-09-01T16:01:00.974Z,10.68
2022-09-01T16:03:32.295Z,8.25
2022-09-01T16:06:03.870Z,7.67
2022-09-01T16:08:36.614Z,6.82
2022-09-01T16:11:12.314Z,12.60
2022-09-01T16:13:44.697Z,14.27
2022-09-01T16:16:31.230Z,13.13
2022-09-01T16:19:08.212Z,12.15
2022-09-01T16:21:48.491Z,11.02
2022-09-01T16:24:19.934Z,10.98
2022-09-01T16:26:51.574Z,11.63
2022-09-01T16:29:30.859Z,6.63
2022-09-01T16:32:01.014Z,10.07
2022-09-01T16:34:32.450Z,11.55
2022-09-01T16:37:12.190Z,11.20
2022-09-01T16:39:50.330Z,7.95
2022-09-01T16:42:29.573Z,11.90
2022-09-01T16:45:09.018Z,9.68
2022-09-01T16:48:02.490Z,11.43
2022-09-01T16:50:44.872Z,7.20
2022-09-01T16:53:30.568Z,14.27
2022-09-01T16:56:11.053Z,10.88
2022-09-01T16:58:52.342Z,9.43
2022-09-01T17:01:37.423Z,8.37
2022-09-01T17:04:26.913Z,9.02
2022-09-01T17:07:06.219Z,10.45
2022-09-01T17:09:42.830Z,7.47
2022-09-01T17:12:37.730Z,10.25
2022-09-01T17:15:13.245Z,9.27
2022-09-01T17:17:48.651Z,8.63
2022-09-01T17:20:19.611Z,8.35
2022-09-01T17:22:54.571Z,9.13
2022-09-01T17:25:32.991Z,12.65
2022-09-01T17:28:10.933Z,8.95
2022-09-01T17:30:51.602Z,7.53
2022-09-01T17:33:29.470Z,11.57
2022-09-01T17:36:18.313Z,9.40
2022-09-01T17:38:57.394Z,14.25
2022-09-01T17:41:38.637Z,10.15
2022-09-01T17:44:24.696Z,7.38
2022-09-01T17:47:12.910Z,9.88
2022-09-01T17:49:55.903Z,17.55
2022-09-01T17:52:42.095Z,9.50
2022-09-01T17:55:27.458Z,10.30
2022-09-01T17:58:05.175Z,10.18
2022-09-01T18:00:44.896Z,10.18
2022-09-01T18:03:38.596Z,10.57
2022-09-01T18:06:14.738Z,11.68
2022-09-01T18:08:47.431Z,9.68
2022-09-01T18:11:21.754Z,9.75
2022-09-01T18:13:57.618Z,11.07
2022-09-01T18:16:34.920Z,9.50
2022-09-01T18:19:09.259Z,8.32
2022-09-01T18:21:49.713Z,10.82
2022-09-01T18:24:24.204Z,9.18
2022-09-01T18:26:54.971Z,10.07
2022-09-01T18:29:30.065Z,9.38
2022-09-01T18:32:18.439Z,8.23
2022-09-01T18:35:13.945Z,9.63
2022-09-01T18:38:04.888Z,9.50
2022-09-01T18:40:46.905Z,9.27
2022-09-01T18:43:27.318Z,7.90
2022-09-01T18:46:03.386Z,10.07
2022-09-01T18:48:56.616Z,12.23
2022-09-01T18:53:37.833Z,11.50
2022-09-01T18:56:22.498Z,13.10
2022-09-01T18:59:07.685Z,9.77
2022-09-01T19:01:45.121Z,9.65
2022-09-01T19:04:26.992Z,8.93
2022-09-01T19:07:09.775Z,8.18
2022-09-01T19:09:50.470Z,10.30
2022-09-01T19:12:33.796Z,10.32
2022-09-01T19:15:12.216Z,10.05
2022-09-01T19:18:13.836Z,11.38
2022-09-01T19:20:52.936Z,12.93
2022-09-01T19:23:36.267Z,11.18
2022-09-01T19:26:21.725Z,11.98
2022-09-01T19:28:55.580Z,10.48
2022-09-01T19:31:30.469Z,9.15
2022-09-01T19:34:05.570Z,9.68
2022-09-01T19:36:42.058Z,7.22
2022-09-01T19:39:16.672Z,11.02
2022-09-01T19:41:54.173Z,10.13
2022-09-01T19:44:35.314Z,10.35
2022-09-01T19:47:14.995Z,8.65
2022-09-01T19:49:50.891Z,8.95
2022-09-01T19:52:34.155Z,10.13
2022-09-01T19:55:10.934Z,9.10
2022-09-01T19:57:48.496Z,9.02
2022-09-01T20:00:25.572Z,8.32
2022-09-01T20:03:06.275Z,7.80
2022-09-01T20:05:45.734Z,8.90
2022-09-01T20:08:24.231Z,12.85
2022-09-01T20:11:01.576Z,15.13
2022-09-01T20:14:00.711Z,9.73
2022-09-01T20:16:38.821Z,8.77
2022-09-01T20:19:16.683Z,11.32
2022-09-01T20:21:49.533Z,8.70
2022-09-01T20:24:30.733Z,8.80
2022-09-01T20:27:07.172Z,10.18
2022-09-01T20:29:49.217Z,8.55
2022-09-01T20:32:30.692Z,9.63
2022-09-01T20:35:08.443Z,11.00
2022-09-01T20:37:45.070Z,10.27
2022-09-01T20:40:19.857Z,10.77
2022-09-01T20:43:03.463Z,10.75
2022-09-01T20:45:35.375Z,8.88
2022-09-01T20:48:11.224Z,9.13
2022-09-01T20:50:50.594Z,9.27
2022-09-01T20:53:44.114Z,10.48
2022-09-01T20:56:24.085Z,10.98
2022-09-01T20:59:02.055Z,10.23
2022-09-01T21:01:41.446Z,13.13
2022-09-01T21:04:30.535Z,10.50
2022-09-01T21:07:06.778Z,9.68
2022-09-01T21:09:48.811Z,11.32
2022-09-01T21:12:31.370Z,13.95
2022-09-01T21:15:15.503Z,10.60
2022-09-01T21:17:54.895Z,11.88
2022-09-01T21:20:36.573Z,10.20
2022-09-01T21:23:06.891Z,11.50
2022-09-01T21:25:36.836Z,13.52
2022-09-01T21:28:08.954Z,13.20
2022-09-01T21:33:10.637Z,12.85
2022-09-01T21:35:40.550Z,10.23
2022-09-01T21:38:10.741Z,14.35
2022-09-01T21:40:40.907Z,10.18
2022-09-01T21:43:17.687Z,11.25
2022-09-01T21:45:48.607Z,10.45
2022-09-01T21:48:20.094Z,9.20
2022-09-01T21:53:22.153Z,12.82
2022-09-01T21:55:52.403Z,11.98
2022-09-01T21:58:22.231Z,12.52
2022-09-01T22:00:52.754Z,13.35
2022-09-01T22:03:22.898Z,10.68
2022-09-01T22:05:53.024Z,11.45
2022-09-01T22:08:24.549Z,11.18
2022-09-01T22:10:56.829Z,12.75
2022-09-01T22:13:28.076Z,10.00
2022-09-01T22:15:58.093Z,10.85
2022-09-01T22:18:28.155Z,13.27
2022-09-01T22:21:05.989Z,11.52
2022-09-01T22:23:38.554Z,12.57
2022-09-01T22:26:13.631Z,13.02
2022-09-01T22:28:45.177Z,15.43
2022-09-01T22:31:16.932Z,12.80
2022-09-01T22:33:48.109Z,15.35
2022-09-01T22:36:23.809Z,17.75
2022-09-01T22:38:56.050Z,15.85
2022-09-01T22:41:28.450Z,14.85
2022-09-01T22:43:59.761Z,14.05
2022-09-01T22:46:30.270Z,13.50
2022-09-01T22:49:01.394Z,15.77
2022-09-01T22:51:31.509Z,13.98
2022-09-01T22:54:02.933Z,13.82
2022-09-01T22:56:36.142Z,16.03
2022-09-01T22:59:10.301Z,15.15
2022-09-01T23:01:43.652Z,14.30
2022-09-01T23:04:16.594Z,14.52
2022-09-01T23:06:51.993Z,15.57
2022-09-01T23:09:24.781Z,16.15
2022-09-01T23:11:54.610Z,19.73
2022-09-01T23:14:24.537Z,20.40
2022-09-01T23:16:54.431Z,22.15
2022-09-01T23:19:26.185Z,27.05
2022-09-01T23:21:56.233Z,32.45
2022-09-01T23:24:27.573Z,32.08
2022-09-01T23:26:57.721Z,29.77
2022-09-01T23:29:27.459Z,37.13
2022-09-01T23:31:59.100Z,29.33
2022-09-01T23:34:28.849Z,26.52
2022-09-01T23:36:58.790Z,24.88
2022-09-01T23:39:30.149Z,22.98
2022-09-01T23:42:00.307Z,24.30
2022-09-01T23:44:30.470Z,28.77
2022-09-01T23:47:00.255Z,26.35
2022-09-01T23:49:30.297Z,26.88
2022-09-01T23:52:00.457Z,28.52
2022-09-01T23:54:31.910Z,25.95
2022-09-01T23:57:01.973Z,24.90
2022-09-01T23:59:31.914Z,27.23
